createdAt,value
2018-02-17T00:00:26.309Z,963.62
2018-02-17T00:01:26.272Z,963.6
2018-02-17T00:02:26.289Z,963.57
2018-02-17T00:03:26.437Z,963.53
2018-02-17T00:04:26.319Z,963.54
2018-02-17T00:05:26.331Z,963.54
2018-02-17T00:06:26.347Z,963.55
2018-02-17T00:07:26.361Z,963.55
2018-02-17T00:08:26.378Z,963.55
2018-02-17T00:09:26.393Z,963.58
2018-02-17T00:10:26.407Z,963.58
2018-02-17T00:11:26.421Z,963.59
2018-02-17T00:12:26.436Z,963.54
2018-02-17T00:13:26.449Z,963.54
2018-02-17T00:14:26.514Z,963.52
2018-02-17T00:15:26.531Z,963.49
2018-02-17T00:16:26.494Z,963.5
2018-02-17T00:17:26.511Z,963.53
2018-02-17T00:18:26.523Z,963.53
2018-02-17T00:19:26.539Z,963.48
2018-02-17T00:20:26.654Z,963.51
2018-02-17T00:21:26.567Z,963.49
2018-02-17T00:22:26.583Z,963.49
2018-02-17T00:23:26.597Z,963.48
2018-02-17T00:24:26.612Z,963.51
2018-02-17T00:25:26.725Z,963.5
2018-02-17T00:26:26.640Z,963.46
2018-02-17T00:27:26.659Z,963.5
2018-02-17T00:28:26.671Z,963.46
2018-02-17T00:29:26.685Z,963.48
2018-02-17T00:30:26.755Z,963.5
2018-02-17T00:31:26.713Z,963.46
2018-02-17T00:32:26.733Z,963.43
2018-02-17T00:33:26.744Z,963.41
2018-02-17T00:34:26.758Z,963.44
2018-02-17T00:35:26.773Z,963.42
2018-02-17T00:36:26.788Z,963.37
2018-02-17T00:37:26.801Z,963.39
2018-02-17T00:38:26.817Z,963.41
2018-02-17T00:39:26.831Z,963.4
2018-02-17T00:40:26.846Z,963.39
2018-02-17T00:41:26.865Z,963.33
2018-02-17T00:42:26.874Z,963.37
2018-02-17T00:43:26.890Z,963.31
2018-02-17T00:44:26.905Z,963.34
2018-02-17T00:45:26.969Z,963.33
2018-02-17T00:46:26.936Z,963.35
2018-02-17T00:47:26.949Z,963.33
2018-02-17T00:48:26.963Z,963.35
2018-02-17T00:49:26.978Z,963.33
2018-02-17T00:50:26.994Z,963.33
2018-02-17T00:51:27.007Z,963.34
2018-02-17T00:52:27.020Z,963.32
2018-02-17T00:53:27.035Z,963.32
2018-02-17T00:54:27.050Z,963.35
2018-02-17T00:55:27.063Z,963.35
2018-02-17T00:56:27.079Z,963.36
2018-02-17T00:57:27.093Z,963.31
2018-02-17T00:58:27.108Z,963.24
2018-02-17T00:59:27.123Z,963.22
2018-02-17T01:00:27.186Z,963.22
2018-02-17T01:01:27.172Z,963.24
2018-02-17T01:02:27.166Z,963.26
2018-02-17T01:03:27.180Z,963.29
2018-02-17T01:04:27.194Z,963.28
2018-02-17T01:05:27.210Z,963.3
2018-02-17T01:06:27.224Z,963.23
2018-02-17T01:07:27.239Z,963.25
2018-02-17T01:08:27.255Z,963.29
2018-02-17T01:09:27.266Z,963.32
2018-02-17T01:10:27.283Z,963.29
2018-02-17T01:11:27.300Z,963.29
2018-02-17T01:12:27.311Z,963.28
2018-02-17T01:13:27.326Z,963.26
2018-02-17T01:14:27.341Z,963.28
2018-02-17T01:15:27.406Z,963.28
2018-02-17T01:16:27.368Z,963.24
2018-02-17T01:17:27.383Z,963.2
2018-02-17T01:18:27.398Z,963.22
2018-02-17T01:19:27.412Z,963.18
2018-02-17T01:20:27.426Z,963.16
2018-02-17T01:21:27.440Z,963.16
2018-02-17T01:22:27.456Z,963.17
2018-02-17T01:23:27.471Z,963.18
2018-02-17T01:24:27.484Z,963.15
2018-02-17T01:25:27.501Z,963.11
2018-02-17T01:26:27.513Z,963.12
2018-02-17T01:27:27.529Z,963.17
2018-02-17T01:28:27.543Z,963.14
2018-02-17T01:29:27.557Z,963.15
2018-02-17T01:30:27.623Z,963.09
2018-02-17T01:31:27.586Z,963.07
2018-02-17T01:32:27.600Z,963.1
2018-02-17T01:33:27.616Z,963.06
2018-02-17T01:34:27.631Z,963.02
2018-02-17T01:35:27.745Z,963
2018-02-17T01:36:27.659Z,962.98
2018-02-17T01:37:27.674Z,962.92
2018-02-17T01:38:27.688Z,962.92
2018-02-17T01:39:27.701Z,962.92
2018-02-17T01:40:27.716Z,962.89
2018-02-17T01:41:27.730Z,962.94
2018-02-17T01:42:27.744Z,962.86
2018-02-17T01:43:27.758Z,962.81
2018-02-17T01:44:27.772Z,962.8
2018-02-17T01:45:27.837Z,962.81
2018-02-17T01:46:27.800Z,962.77
2018-02-17T01:47:27.814Z,962.83
2018-02-17T01:48:27.830Z,962.77
2018-02-17T01:49:27.844Z,962.79
2018-02-17T01:50:27.910Z,962.78
2018-02-17T01:51:27.871Z,962.74
2018-02-17T01:52:27.886Z,962.77
2018-02-17T01:53:27.901Z,962.76
2018-02-17T01:54:27.915Z,962.75
2018-02-17T01:55:27.929Z,962.7
2018-02-17T01:56:27.944Z,962.69
2018-02-17T01:57:27.957Z,962.67
2018-02-17T01:58:27.972Z,962.69
2018-02-17T01:59:27.991Z,962.62
2018-02-17T02:00:27.998Z,962.6
2018-02-17T02:01:28.014Z,962.57
2018-02-17T02:02:28.029Z,962.6
2018-02-17T02:03:28.041Z,962.57
2018-02-17T02:04:28.053Z,962.58
2018-02-17T02:05:28.119Z,962.56
2018-02-17T02:06:28.094Z,962.53
2018-02-17T02:07:28.098Z,962.53
2018-02-17T02:08:28.110Z,962.52
2018-02-17T02:09:28.124Z,962.51
2018-02-17T02:10:28.137Z,962.52
2018-02-17T02:11:28.151Z,962.48
2018-02-17T02:12:28.168Z,962.47
2018-02-17T02:13:28.182Z,962.42
2018-02-17T02:14:28.194Z,962.39
2018-02-17T02:15:28.207Z,962.29
2018-02-17T02:16:28.222Z,962.3
2018-02-17T02:17:28.235Z,962.34
2018-02-17T02:18:28.250Z,962.33
2018-02-17T02:19:28.264Z,962.32
2018-02-17T02:20:28.328Z,962.31
2018-02-17T02:21:28.291Z,962.26
2018-02-17T02:22:28.305Z,962.26
2018-02-17T02:23:28.318Z,962.26
2018-02-17T02:24:28.335Z,962.27
2018-02-17T02:25:28.397Z,962.19
2018-02-17T02:26:28.360Z,962.18
2018-02-17T02:27:28.374Z,962.12
2018-02-17T02:28:28.389Z,962.1
2018-02-17T02:29:28.401Z,962.18
2018-02-17T02:30:28.414Z,962.15
2018-02-17T02:31:28.428Z,962.14
2018-02-17T02:32:28.442Z,962.08
2018-02-17T02:33:28.454Z,962.08
2018-02-17T02:34:28.469Z,962.08
2018-02-17T02:35:28.484Z,962.09
2018-02-17T02:36:28.497Z,962.08
2018-02-17T02:37:28.514Z,962.05
2018-02-17T02:38:28.525Z,962.01
2018-02-17T02:39:28.539Z,962.02
2018-02-17T02:40:28.700Z,962.02
2018-02-17T02:41:28.565Z,962.02
2018-02-17T02:42:28.585Z,962.02
2018-02-17T02:43:28.593Z,961.99
2018-02-17T02:44:28.605Z,961.98
2018-02-17T02:45:28.619Z,961.96
2018-02-17T02:46:28.632Z,961.93
2018-02-17T02:47:28.646Z,961.94
2018-02-17T02:48:28.660Z,961.9
2018-02-17T02:49:28.672Z,961.88
2018-02-17T02:50:28.686Z,961.9
2018-02-17T02:51:28.702Z,961.82
2018-02-17T02:52:28.718Z,961.82
2018-02-17T02:53:28.726Z,961.8
2018-02-17T02:54:28.740Z,961.74
2018-02-17T02:55:28.757Z,961.73
2018-02-17T02:56:28.769Z,961.71
2018-02-17T02:57:28.830Z,961.66
2018-02-17T02:58:28.794Z,961.6
2018-02-17T02:59:28.808Z,961.54
2018-02-17T03:00:28.820Z,961.55
2018-02-17T03:01:28.836Z,961.53
2018-02-17T03:02:28.848Z,961.51
2018-02-17T03:03:28.861Z,961.52
2018-02-17T03:04:28.874Z,961.48
2018-02-17T03:05:28.887Z,961.46
2018-02-17T03:06:28.902Z,961.41
2018-02-17T03:07:29.014Z,961.46
2018-02-17T03:08:28.930Z,961.42
2018-02-17T03:09:28.940Z,961.41
2018-02-17T03:10:28.952Z,961.41
2018-02-17T03:11:28.967Z,961.37
2018-02-17T03:12:29.034Z,961.38
2018-02-17T03:13:28.993Z,961.39
2018-02-17T03:14:29.007Z,961.41
2018-02-17T03:15:29.018Z,961.37
2018-02-17T03:16:29.032Z,961.34
2018-02-17T03:17:29.045Z,961.27
2018-02-17T03:18:29.071Z,961.22
2018-02-17T03:19:29.072Z,961.13
2018-02-17T03:20:29.084Z,961.08
2018-02-17T03:21:29.097Z,961.12
2018-02-17T03:22:29.111Z,961.07
2018-02-17T03:23:29.124Z,961.02
2018-02-17T03:24:29.137Z,961
2018-02-17T03:25:29.153Z,960.99
2018-02-17T03:26:29.162Z,961.01
2018-02-17T03:27:29.226Z,961.01
2018-02-17T03:28:29.190Z,961
2018-02-17T03:29:29.204Z,961.04
2018-02-17T03:30:29.216Z,961.03
2018-02-17T03:31:29.231Z,961.05
2018-02-17T03:32:29.241Z,960.99
2018-02-17T03:33:29.283Z,960.96
2018-02-17T03:34:29.271Z,960.92
2018-02-17T03:35:29.281Z,960.88
2018-02-17T03:36:29.294Z,960.93
2018-02-17T03:37:29.308Z,960.88
2018-02-17T03:38:29.322Z,960.93
2018-02-17T03:39:29.334Z,960.97
2018-02-17T03:40:29.347Z,960.99
2018-02-17T03:41:29.360Z,960.97
2018-02-17T03:42:29.423Z,960.93
2018-02-17T03:43:29.387Z,960.89
2018-02-17T03:44:29.398Z,960.85
2018-02-17T03:45:29.412Z,960.84
2018-02-17T03:46:29.422Z,960.76
2018-02-17T03:47:29.439Z,960.7
2018-02-17T03:48:29.449Z,960.66
2018-02-17T03:49:29.462Z,960.61
2018-02-17T03:50:29.478Z,960.55
2018-02-17T03:51:29.491Z,960.57
2018-02-17T03:52:29.502Z,960.58
2018-02-17T03:53:29.514Z,960.58
2018-02-17T03:54:29.527Z,960.58
2018-02-17T03:55:29.543Z,960.69
2018-02-17T03:56:29.552Z,960.68
2018-02-17T03:57:29.715Z,960.69
2018-02-17T03:58:29.578Z,960.72
2018-02-17T03:59:29.592Z,960.69
2018-02-17T04:00:29.603Z,960.72
2018-02-17T04:01:29.619Z,960.67
2018-02-17T04:02:29.730Z,960.65
2018-02-17T04:03:29.642Z,960.67
2018-02-17T04:04:29.655Z,960.66
2018-02-17T04:05:29.668Z,960.72
2018-02-17T04:06:29.681Z,960.73
2018-02-17T04:07:29.693Z,960.78
2018-02-17T04:08:29.707Z,960.78
2018-02-17T04:09:29.717Z,960.79
2018-02-17T04:10:29.731Z,960.86
2018-02-17T04:11:29.745Z,960.8
2018-02-17T04:12:29.757Z,960.81
2018-02-17T04:13:29.769Z,960.83
2018-02-17T04:14:29.831Z,960.86
2018-02-17T04:15:29.794Z,960.87
2018-02-17T04:16:29.808Z,960.84
2018-02-17T04:17:29.824Z,960.84
2018-02-17T04:18:29.832Z,960.87
2018-02-17T04:19:29.845Z,960.83
2018-02-17T04:20:29.862Z,960.82
2018-02-17T04:21:29.872Z,960.8
2018-02-17T04:22:29.885Z,960.73
2018-02-17T04:23:29.896Z,960.75
2018-02-17T04:24:30.009Z,960.73
2018-02-17T04:25:29.927Z,960.7
2018-02-17T04:26:29.935Z,960.71
2018-02-17T04:27:29.948Z,960.63
2018-02-17T04:28:29.961Z,960.68
2018-02-17T04:29:30.025Z,960.65
2018-02-17T04:30:29.987Z,960.7
2018-02-17T04:31:30.001Z,960.63
2018-02-17T04:32:30.013Z,960.61
2018-02-17T04:33:30.031Z,960.58
2018-02-17T04:34:30.039Z,960.55
2018-02-17T04:35:30.051Z,960.5
2018-02-17T04:36:30.068Z,960.43
2018-02-17T04:37:30.099Z,960.38
2018-02-17T04:38:30.091Z,960.36
2018-02-17T04:39:30.102Z,960.33
2018-02-17T04:40:30.116Z,960.3
2018-02-17T04:41:30.128Z,960.21
2018-02-17T04:42:30.145Z,960.23
2018-02-17T04:43:30.155Z,960.26
2018-02-17T04:44:30.219Z,960.24
2018-02-17T04:45:30.186Z,960.22
2018-02-17T04:46:30.193Z,960.23
2018-02-17T04:47:30.207Z,960.19
2018-02-17T04:48:30.220Z,960.14
2018-02-17T04:49:30.233Z,960.18
2018-02-17T04:50:30.247Z,960.13
2018-02-17T04:51:30.258Z,960.13
2018-02-17T04:52:30.276Z,960.15
2018-02-17T04:53:30.283Z,960.2
2018-02-17T04:54:30.396Z,960.21
2018-02-17T04:55:30.310Z,960.13
2018-02-17T04:56:30.323Z,960.16
2018-02-17T04:57:30.335Z,960.1
2018-02-17T04:58:30.347Z,960.06
2018-02-17T04:59:30.410Z,960.04
2018-02-17T05:00:30.372Z,959.98
2018-02-17T05:01:30.387Z,959.97
2018-02-17T05:02:30.398Z,959.95
2018-02-17T05:03:30.414Z,959.91
2018-02-17T05:04:30.424Z,959.87
2018-02-17T05:05:30.436Z,959.83
2018-02-17T05:06:30.450Z,959.74
2018-02-17T05:07:30.462Z,959.72
2018-02-17T05:08:30.474Z,959.68
2018-02-17T05:09:30.489Z,959.68
2018-02-17T05:10:30.504Z,959.65
2018-02-17T05:11:30.513Z,959.66
2018-02-17T05:12:30.524Z,959.67
2018-02-17T05:13:30.537Z,959.66
2018-02-17T05:14:30.600Z,959.69
2018-02-17T05:15:30.564Z,959.67
2018-02-17T05:16:30.576Z,959.61
2018-02-17T05:17:30.589Z,959.58
2018-02-17T05:18:30.603Z,959.57
2018-02-17T05:19:30.614Z,959.58
2018-02-17T05:20:30.644Z,959.54
2018-02-17T05:21:30.637Z,959.53
2018-02-17T05:22:30.651Z,959.48
2018-02-17T05:23:30.665Z,959.48
2018-02-17T05:24:30.676Z,959.5
2018-02-17T05:25:30.690Z,959.48
2018-02-17T05:26:30.703Z,959.4
2018-02-17T05:27:30.724Z,959.39
2018-02-17T05:28:30.729Z,959.42
2018-02-17T05:29:30.792Z,959.39
2018-02-17T05:30:30.753Z,959.31
2018-02-17T05:31:30.768Z,959.37
2018-02-17T05:32:30.779Z,959.34
2018-02-17T05:33:30.793Z,959.32
2018-02-17T05:34:30.864Z,959.26
2018-02-17T05:35:30.817Z,959.22
2018-02-17T05:36:30.828Z,959.2
2018-02-17T05:37:30.841Z,959.21
2018-02-17T05:38:30.857Z,959.2
2018-02-17T05:39:30.967Z,959.21
2018-02-17T05:40:30.881Z,959.31
2018-02-17T05:41:30.892Z,959.34
2018-02-17T05:42:30.904Z,959.34
2018-02-17T05:43:30.916Z,959.31
2018-02-17T05:44:30.967Z,959.37
2018-02-17T05:45:30.943Z,959.32
2018-02-17T05:46:30.956Z,959.26
2018-02-17T05:47:30.967Z,959.32
2018-02-17T05:48:30.981Z,959.27
2018-02-17T05:49:31.060Z,959.29
2018-02-17T05:50:31.005Z,959.41
2018-02-17T05:51:31.017Z,959.38
2018-02-17T05:52:31.031Z,959.4
2018-02-17T05:53:31.049Z,959.35
2018-02-17T05:54:31.055Z,959.33
2018-02-17T05:55:31.070Z,959.29
2018-02-17T05:56:31.080Z,959.23
2018-02-17T05:57:31.094Z,959.25
2018-02-17T05:58:31.105Z,959.23
2018-02-17T05:59:31.119Z,959.24
2018-02-17T06:00:31.136Z,959.29
2018-02-17T06:01:31.143Z,959.26
2018-02-17T06:02:31.157Z,959.2
2018-02-17T06:03:31.186Z,959.22
2018-02-17T06:04:31.233Z,959.17
2018-02-17T06:05:31.196Z,959.17
2018-02-17T06:06:31.207Z,959.13
2018-02-17T06:07:31.220Z,959.13
2018-02-17T06:08:31.234Z,959.04
2018-02-17T06:09:31.246Z,959
2018-02-17T06:10:31.259Z,958.96
2018-02-17T06:11:31.272Z,958.99
2018-02-17T06:12:31.283Z,958.97
2018-02-17T06:13:31.297Z,958.95
2018-02-17T06:14:31.309Z,958.99
2018-02-17T06:15:31.325Z,959
2018-02-17T06:16:31.336Z,959.03
2018-02-17T06:17:31.346Z,958.92
2018-02-17T06:18:31.360Z,958.91
2018-02-17T06:19:31.424Z,958.88
2018-02-17T06:20:31.385Z,958.86
2018-02-17T06:21:31.411Z,958.84
2018-02-17T06:22:31.410Z,958.76
2018-02-17T06:23:31.424Z,958.76
2018-02-17T06:24:31.441Z,958.77
2018-02-17T06:25:31.448Z,958.81
2018-02-17T06:26:31.462Z,958.75
2018-02-17T06:27:31.474Z,958.75
2018-02-17T06:28:31.487Z,958.71
2018-02-17T06:29:31.506Z,958.72
2018-02-17T06:30:31.514Z,958.71
2018-02-17T06:31:31.526Z,958.72
2018-02-17T06:32:31.538Z,958.71
2018-02-17T06:33:31.552Z,958.76
2018-02-17T06:34:31.614Z,958.72
2018-02-17T06:35:31.577Z,958.75
2018-02-17T06:36:31.590Z,958.77
2018-02-17T06:37:31.605Z,958.76
2018-02-17T06:38:31.614Z,958.76
2018-02-17T06:39:31.628Z,958.72
2018-02-17T06:40:31.640Z,958.69
2018-02-17T06:41:31.654Z,958.7
2018-02-17T06:42:31.715Z,958.69
2018-02-17T06:43:31.682Z,958.68
2018-02-17T06:44:31.692Z,958.65
2018-02-17T06:45:31.704Z,958.61
2018-02-17T06:46:31.732Z,958.63
2018-02-17T06:47:31.886Z,958.63
2018-02-17T06:48:31.746Z,958.62
2018-02-17T06:49:31.754Z,958.6
2018-02-17T06:50:31.766Z,958.49
2018-02-17T06:51:31.781Z,958.45
2018-02-17T06:52:31.794Z,958.36
2018-02-17T06:53:31.810Z,958.33
2018-02-17T06:54:31.818Z,958.28
2018-02-17T06:55:31.831Z,958.24
2018-02-17T06:56:31.845Z,958.24
2018-02-17T06:57:31.905Z,958.23
2018-02-17T06:58:31.869Z,958.22
2018-02-17T06:59:31.882Z,958.16
2018-02-17T07:00:31.893Z,958.16
2018-02-17T07:01:31.905Z,958.02
2018-02-17T07:02:31.918Z,957.9
2018-02-17T07:03:31.932Z,957.91
2018-02-17T07:04:31.945Z,957.87
2018-02-17T07:05:31.956Z,957.91
2018-02-17T07:06:31.970Z,957.98
2018-02-17T07:07:31.982Z,958.02
2018-02-17T07:08:31.994Z,958.02
2018-02-17T07:09:32.009Z,958
2018-02-17T07:10:32.019Z,957.92
2018-02-17T07:11:32.044Z,957.86
2018-02-17T07:12:32.096Z,957.91
2018-02-17T07:13:32.057Z,957.97
2018-02-17T07:14:32.070Z,958.01
2018-02-17T07:15:32.082Z,958.13
2018-02-17T07:16:32.097Z,958.2
2018-02-17T07:17:32.108Z,958.18
2018-02-17T07:18:32.121Z,958.25
2018-02-17T07:19:32.133Z,958.23
2018-02-17T07:20:32.146Z,958.25
2018-02-17T07:21:32.159Z,958.18
2018-02-17T07:22:32.271Z,958.16
2018-02-17T07:23:32.184Z,958.11
2018-02-17T07:24:32.196Z,958.06
2018-02-17T07:25:32.208Z,957.9
2018-02-17T07:26:32.227Z,957.82
2018-02-17T07:27:32.284Z,957.71
2018-02-17T07:28:32.246Z,957.73
2018-02-17T07:29:32.283Z,957.83
2018-02-17T07:30:32.271Z,957.87
2018-02-17T07:31:32.283Z,957.92
2018-02-17T07:32:32.298Z,957.98
2018-02-17T07:33:32.310Z,957.86
2018-02-17T07:34:32.326Z,957.84
2018-02-17T07:35:32.335Z,957.79
2018-02-17T07:36:32.346Z,957.85
2018-02-17T07:37:32.610Z,957.84
2018-02-17T07:38:32.374Z,957.8
2018-02-17T07:39:32.384Z,957.8
2018-02-17T07:40:32.395Z,957.8
2018-02-17T07:41:32.411Z,957.8
2018-02-17T07:42:32.471Z,957.78
2018-02-17T07:43:32.436Z,957.68
2018-02-17T07:44:32.446Z,957.6
2018-02-17T07:45:32.459Z,957.66
2018-02-17T07:46:32.474Z,957.64
2018-02-17T07:47:32.483Z,957.65
2018-02-17T07:48:32.596Z,957.71
2018-02-17T07:49:32.509Z,957.81
2018-02-17T07:50:32.523Z,957.83
2018-02-17T07:51:32.598Z,957.84
2018-02-17T07:52:32.548Z,957.86
2018-02-17T07:53:32.560Z,957.86
2018-02-17T07:54:32.573Z,957.88
2018-02-17T07:55:32.585Z,957.86
2018-02-17T07:56:32.599Z,957.93
2018-02-17T07:57:32.658Z,957.93
2018-02-17T07:58:32.674Z,957.98
2018-02-17T07:59:32.636Z,958.02
2018-02-17T08:00:32.650Z,958.06
2018-02-17T08:01:32.662Z,958.01
2018-02-17T08:02:32.678Z,957.95
2018-02-17T08:03:32.689Z,957.98
2018-02-17T08:04:32.700Z,957.87
2018-02-17T08:05:32.714Z,957.83
2018-02-17T08:06:32.726Z,957.8
2018-02-17T08:07:32.739Z,957.74
2018-02-17T08:08:32.756Z,957.69
2018-02-17T08:09:32.763Z,957.68
2018-02-17T08:10:32.776Z,957.71
2018-02-17T08:11:32.789Z,957.74
2018-02-17T08:12:32.804Z,957.74
2018-02-17T08:13:32.865Z,957.72
2018-02-17T08:14:32.828Z,957.78
2018-02-17T08:15:32.841Z,957.79
2018-02-17T08:16:32.853Z,957.81
2018-02-17T08:17:32.868Z,957.73
2018-02-17T08:18:32.878Z,957.71
2018-02-17T08:19:32.898Z,957.71
2018-02-17T08:20:32.904Z,957.68
2018-02-17T08:21:32.915Z,957.69
2018-02-17T08:22:32.927Z,957.68
2018-02-17T08:23:32.941Z,957.72
2018-02-17T08:24:32.996Z,957.66
2018-02-17T08:25:32.964Z,957.64
2018-02-17T08:26:32.980Z,957.59
2018-02-17T08:27:32.993Z,957.52
2018-02-17T08:28:33.054Z,957.48
2018-02-17T08:29:33.016Z,957.49
2018-02-17T08:30:33.030Z,957.41
2018-02-17T08:31:33.044Z,957.35
2018-02-17T08:32:33.052Z,957.39
2018-02-17T08:33:33.066Z,957.37
2018-02-17T08:34:33.080Z,957.36
2018-02-17T08:35:33.091Z,957.33
2018-02-17T08:36:33.103Z,957.31
2018-02-17T08:37:33.115Z,957.28
2018-02-17T08:38:33.128Z,957.27
2018-02-17T08:39:33.188Z,957.19
2018-02-17T08:40:33.153Z,957.14
2018-02-17T08:41:33.167Z,957.03
2018-02-17T08:42:33.178Z,957.01
2018-02-17T08:43:33.241Z,956.9
2018-02-17T08:44:33.205Z,956.84
2018-02-17T08:45:33.218Z,956.82
2018-02-17T08:46:33.230Z,956.75
2018-02-17T08:47:33.242Z,956.64
2018-02-17T08:48:33.255Z,956.63
2018-02-17T08:49:33.265Z,956.6
2018-02-17T08:50:33.279Z,956.6
2018-02-17T08:51:33.292Z,956.61
2018-02-17T08:52:33.310Z,956.58
2018-02-17T08:53:33.317Z,956.54
2018-02-17T08:54:33.328Z,956.56
2018-02-17T08:55:33.342Z,956.57
2018-02-17T08:56:33.354Z,956.56
2018-02-17T08:57:33.368Z,956.64
2018-02-17T08:58:33.430Z,956.69
2018-02-17T08:59:33.393Z,956.68
2018-02-17T09:00:33.405Z,956.66
2018-02-17T09:01:33.416Z,956.65
2018-02-17T09:02:33.452Z,956.53
2018-02-17T09:03:33.443Z,956.46
2018-02-17T09:04:33.454Z,956.33
2018-02-17T09:05:33.466Z,956.25
2018-02-17T09:06:33.480Z,956.14
2018-02-17T09:07:33.496Z,956.05
2018-02-17T09:08:33.506Z,956.06
2018-02-17T09:09:33.522Z,956.03
2018-02-17T09:10:33.534Z,955.96
2018-02-17T09:11:33.543Z,955.94
2018-02-17T09:12:33.557Z,955.9
2018-02-17T09:13:33.619Z,955.83
2018-02-17T09:14:33.585Z,955.79
2018-02-17T09:15:33.596Z,955.79
2018-02-17T09:16:33.610Z,955.78
2018-02-17T09:17:33.621Z,955.82
2018-02-17T09:18:33.637Z,955.91
2018-02-17T09:19:33.653Z,955.93
2018-02-17T09:20:33.661Z,955.92
2018-02-17T09:21:33.674Z,955.99
2018-02-17T09:22:33.686Z,956.02
2018-02-17T09:23:33.699Z,956.04
2018-02-17T09:24:33.714Z,956.07
2018-02-17T09:25:33.729Z,956.09
2018-02-17T09:26:33.740Z,956.17
2018-02-17T09:27:33.785Z,956.2
2018-02-17T09:28:33.815Z,956.2
2018-02-17T09:29:33.779Z,956.21
2018-02-17T09:30:33.792Z,956.25
2018-02-17T09:31:33.804Z,956.23
2018-02-17T09:32:33.822Z,956.27
2018-02-17T09:33:33.832Z,956.26
2018-02-17T09:34:33.843Z,956.22
2018-02-17T09:35:33.857Z,956.21
2018-02-17T09:36:33.871Z,956.24
2018-02-17T09:37:33.882Z,956.22
2018-02-17T09:38:33.896Z,956.17
2018-02-17T09:39:33.909Z,956.18
2018-02-17T09:40:33.929Z,956.21
2018-02-17T09:41:33.936Z,956.2
2018-02-17T09:42:33.949Z,956.31
2018-02-17T09:43:34.012Z,956.33
2018-02-17T09:44:33.973Z,956.35
2018-02-17T09:45:34.006Z,956.36
2018-02-17T09:46:34.000Z,956.31
2018-02-17T09:47:34.019Z,956.33
2018-02-17T09:48:34.026Z,956.36
2018-02-17T09:49:34.040Z,956.37
2018-02-17T09:50:34.054Z,956.39
2018-02-17T09:51:34.068Z,956.36
2018-02-17T09:52:34.084Z,956.37
2018-02-17T09:53:34.193Z,956.37
2018-02-17T09:54:34.107Z,956.3
2018-02-17T09:55:34.120Z,956.31
2018-02-17T09:56:34.136Z,956.29
2018-02-17T09:57:34.147Z,956.29
2018-02-17T09:58:34.208Z,956.32
2018-02-17T09:59:34.170Z,956.33
2018-02-17T10:00:34.182Z,956.37
2018-02-17T10:01:34.196Z,956.37
2018-02-17T10:02:34.209Z,956.35
2018-02-17T10:03:34.274Z,956.38
2018-02-17T10:04:34.234Z,956.4
2018-02-17T10:05:34.249Z,956.43
2018-02-17T10:06:34.261Z,956.41
2018-02-17T10:07:34.274Z,956.43
2018-02-17T10:08:34.387Z,956.46
2018-02-17T10:09:34.299Z,956.38
2018-02-17T10:10:34.312Z,956.41
2018-02-17T10:11:34.325Z,956.44
2018-02-17T10:12:34.339Z,956.44
2018-02-17T10:13:34.401Z,956.44
2018-02-17T10:14:34.364Z,956.52
2018-02-17T10:15:34.378Z,956.48
2018-02-17T10:16:34.391Z,956.5
2018-02-17T10:17:34.403Z,956.44
2018-02-17T10:18:34.417Z,956.43
2018-02-17T10:19:34.429Z,956.4
2018-02-17T10:20:34.448Z,956.46
2018-02-17T10:21:34.454Z,956.48
2018-02-17T10:22:34.469Z,956.47
2018-02-17T10:23:34.481Z,956.55
2018-02-17T10:24:34.517Z,956.58
2018-02-17T10:25:34.506Z,956.53
2018-02-17T10:26:34.520Z,956.54
2018-02-17T10:27:34.533Z,956.54
2018-02-17T10:28:34.596Z,956.52
2018-02-17T10:29:34.563Z,956.53
2018-02-17T10:30:34.571Z,956.52
2018-02-17T10:31:34.584Z,956.53
2018-02-17T10:32:34.597Z,956.52
2018-02-17T10:33:34.611Z,956.48
2018-02-17T10:34:34.623Z,956.45
2018-02-17T10:35:34.698Z,956.39
2018-02-17T10:36:34.650Z,956.39
2018-02-17T10:37:34.660Z,956.37
2018-02-17T10:38:34.681Z,956.3
2018-02-17T10:39:34.686Z,956.28
2018-02-17T10:40:34.700Z,956.25
2018-02-17T10:41:34.715Z,956.22
2018-02-17T10:42:34.725Z,956.15
2018-02-17T10:43:34.788Z,956.18
2018-02-17T10:44:34.752Z,956.15
2018-02-17T10:45:34.914Z,956.13
2018-02-17T10:46:34.776Z,956.14
2018-02-17T10:47:34.790Z,956.16
2018-02-17T10:48:34.859Z,956.14
2018-02-17T10:49:34.816Z,956.18
2018-02-17T10:50:34.886Z,956.15
2018-02-17T10:51:34.841Z,956.12
2018-02-17T10:52:34.856Z,956.13
2018-02-17T10:53:34.869Z,956.1
2018-02-17T10:54:34.882Z,956.08
2018-02-17T10:55:34.894Z,956.06
2018-02-17T10:56:34.908Z,956.05
2018-02-17T10:57:34.919Z,956.02
2018-02-17T10:58:34.932Z,955.95
2018-02-17T10:59:34.949Z,956
2018-02-17T11:00:34.962Z,955.98
2018-02-17T11:01:34.972Z,955.97
2018-02-17T11:02:34.991Z,955.97
2018-02-17T11:03:34.999Z,955.94
2018-02-17T11:04:35.012Z,955.9
2018-02-17T11:05:35.024Z,955.89
2018-02-17T11:06:35.039Z,955.92
2018-02-17T11:07:35.052Z,955.91
2018-02-17T11:08:35.065Z,955.92
2018-02-17T11:09:35.079Z,955.83
2018-02-17T11:10:35.093Z,955.87
2018-02-17T11:11:35.107Z,955.85
2018-02-17T11:12:35.118Z,955.8
2018-02-17T11:13:35.133Z,955.84
2018-02-17T11:14:35.147Z,955.83
2018-02-17T11:15:35.159Z,955.84
2018-02-17T11:16:35.228Z,955.82
2018-02-17T11:17:35.186Z,955.87
2018-02-17T11:18:35.201Z,955.86
2018-02-17T11:19:35.213Z,955.81
2018-02-17T11:20:35.227Z,955.82
2018-02-17T11:21:35.240Z,955.81
2018-02-17T11:22:35.255Z,955.79
2018-02-17T11:23:35.266Z,955.79
2018-02-17T11:24:35.280Z,955.76
2018-02-17T11:25:35.294Z,955.73
2018-02-17T11:26:35.309Z,955.7
2018-02-17T11:27:35.320Z,955.65
2018-02-17T11:28:35.336Z,955.64
2018-02-17T11:29:35.349Z,955.64
2018-02-17T11:30:35.365Z,955.54
2018-02-17T11:31:35.427Z,955.53
2018-02-17T11:32:35.389Z,955.53
2018-02-17T11:33:35.403Z,955.53
2018-02-17T11:34:35.416Z,955.49
2018-02-17T11:35:35.430Z,955.44
2018-02-17T11:36:35.444Z,955.45
2018-02-17T11:37:35.457Z,955.4
2018-02-17T11:38:35.468Z,955.38
2018-02-17T11:39:35.483Z,955.38
2018-02-17T11:40:35.496Z,955.36
2018-02-17T11:41:35.508Z,955.35
2018-02-17T11:42:35.521Z,955.3
2018-02-17T11:43:35.537Z,955.32
2018-02-17T11:44:35.550Z,955.28
2018-02-17T11:45:35.562Z,955.27
2018-02-17T11:46:35.575Z,955.28
2018-02-17T11:47:35.639Z,955.25
2018-02-17T11:48:35.603Z,955.33
2018-02-17T11:49:35.617Z,955.26
2018-02-17T11:50:35.627Z,955.23
2018-02-17T11:51:35.640Z,955.16
2018-02-17T11:52:35.654Z,955.13
2018-02-17T11:53:35.716Z,955.09
2018-02-17T11:54:35.681Z,955.07
2018-02-17T11:55:35.692Z,954.97
2018-02-17T11:56:35.705Z,954.98
2018-02-17T11:57:35.722Z,954.95
2018-02-17T11:58:35.737Z,955.03
2018-02-17T11:59:35.776Z,954.99
2018-02-17T12:00:35.761Z,954.97
2018-02-17T12:01:35.774Z,954.94
2018-02-17T12:02:35.841Z,954.98
2018-02-17T12:03:35.803Z,955.09
2018-02-17T12:04:35.816Z,954.99
2018-02-17T12:05:35.828Z,955.04
2018-02-17T12:06:35.843Z,955.06
2018-02-17T12:07:35.854Z,955.05
2018-02-17T12:08:35.868Z,955.05
2018-02-17T12:09:35.884Z,955.06
2018-02-17T12:10:35.897Z,954.99
2018-02-17T12:11:35.907Z,955
2018-02-17T12:12:35.921Z,955
2018-02-17T12:13:35.936Z,955
2018-02-17T12:14:35.948Z,955.09
2018-02-17T12:15:35.964Z,955.06
2018-02-17T12:16:35.974Z,955.15
2018-02-17T12:17:35.988Z,955.18
2018-02-17T12:18:36.000Z,955.2
2018-02-17T12:19:36.015Z,955.19
2018-02-17T12:20:36.028Z,955.17
2018-02-17T12:21:36.039Z,955.16
2018-02-17T12:22:36.069Z,955.18
2018-02-17T12:23:36.077Z,955.23
2018-02-17T12:24:36.080Z,955.24
2018-02-17T12:25:36.094Z,955.2
2018-02-17T12:26:36.107Z,955.23
2018-02-17T12:27:36.121Z,955.24
2018-02-17T12:28:36.133Z,955.24
2018-02-17T12:29:36.146Z,955.21
2018-02-17T12:30:36.164Z,955.22
2018-02-17T12:31:36.173Z,955.22